<?xml version="1.0" encoding="UTF-8" standalone="no" ?>
<gpx xmlns="http://www.topografix.com/GPX/1/1" xmlns:xsi="http://www.w3.org/2001/XMLSchema-instance" xsi:schemaLocation="http://www.topografix.com/GPX/1/1 http://www.topografix.com/GPX/1/1/gpx.xsd" version="1.1" creator="VisuGPX - https://www.visugpx.com">
  <metadata>
    <name>secteur Saverne - Dabo - Petite Pierre</name>
  </metadata>
  <trk>
    <name><![CDATA[secteur Saverne - Dabo - Petite Pierre_10]]></name>
    <trkseg>
      <trkpt lat="48.63396" lon="7.11757">
        <ele>406.6</ele>
        <time>2020-08-12T08:14:50Z</time>
      </trkpt>
      <trkpt lat="48.63396" lon="7.11757">
        <ele>406.6</ele>
        <time>2020-08-12T08:14:50Z</time>
      </trkpt>
      <trkpt lat="48.63396" lon="7.11757">
        <ele>406.6</ele>
        <time>2020-08-12T08:14:50Z</time>
      </trkpt>
      <trkpt lat="48.63396" lon="7.11757">
        <ele>406.6</ele>
        <time>2020-08-12T08:14:50Z</time>
      </trkpt>
      <trkpt lat="48.63396" lon="7.11757">
        <ele>406.6</ele>
        <time>2020-08-12T08:14:50Z</time>
      </trkpt>
      <trkpt lat="48.63396" lon="7.11757">
        <ele>406.6</ele>
        <time>2020-08-12T08:14:50Z</time>
      </trkpt>
      <trkpt lat="48.63396" lon="7.11757">
        <ele>406.6</ele>
        <time>2020-08-12T08:14:50Z</time>
      </trkpt>
      <trkpt lat="48.63396" lon="7.11757">
        <ele>406.6</ele>
        <time>2020-08-12T08:14:50Z</time>
      </trkpt>
      <trkpt lat="48.63392" lon="7.11754">
        <ele>406.2</ele>
        <time>2020-08-12T08:15:01Z</time>
      </trkpt>
      <trkpt lat="48.63386" lon="7.11753">
        <ele>405.2</ele>
        <time>2020-08-12T08:15:05Z</time>
      </trkpt>
      <trkpt lat="48.63382" lon="7.11751">
        <ele>404.9</ele>
        <time>2020-08-12T08:15:07Z</time>
      </trkpt>
      <trkpt lat="48.63377" lon="7.1175">
        <ele>404.4</ele>
        <time>2020-08-12T08:15:09Z</time>
      </trkpt>
      <trkpt lat="48.63372" lon="7.1175">
        <ele>404</ele>
        <time>2020-08-12T08:15:11Z</time>
      </trkpt>
      <trkpt lat="48.63367" lon="7.11751">
        <ele>403.6</ele>
        <time>2020-08-12T08:15:13Z</time>
      </trkpt>
      <trkpt lat="48.6336" lon="7.11752">
        <ele>402.9</ele>
        <time>2020-08-12T08:15:15Z</time>
      </trkpt>
      <trkpt lat="48.63354" lon="7.11751">
        <ele>401</ele>
        <time>2020-08-12T08:15:17Z</time>
      </trkpt>
      <trkpt lat="48.63347" lon="7.11751">
        <ele>399.5</ele>
        <time>2020-08-12T08:15:19Z</time>
      </trkpt>
      <trkpt lat="48.6334" lon="7.11749">
        <ele>397.5</ele>
        <time>2020-08-12T08:15:21Z</time>
      </trkpt>
      <trkpt lat="48.63333" lon="7.11749">
        <ele>395.5</ele>
        <time>2020-08-12T08:15:23Z</time>
      </trkpt>
      <trkpt lat="48.63326" lon="7.11749">
        <ele>393.5</ele>
        <time>2020-08-12T08:15:25Z</time>
      </trkpt>
      <trkpt lat="48.63318" lon="7.1175">
        <ele>392.1</ele>
        <time>2020-08-12T08:15:27Z</time>
      </trkpt>
      <trkpt lat="48.63308" lon="7.11752">
        <ele>391.6</ele>
        <time>2020-08-12T08:15:29Z</time>
      </trkpt>
      <trkpt lat="48.63299" lon="7.1175">
        <ele>390.8</ele>
        <time>2020-08-12T08:15:31Z</time>
      </trkpt>
      <trkpt lat="48.63292" lon="7.11748">
        <ele>389.8</ele>
        <time>2020-08-12T08:15:33Z</time>
      </trkpt>
      <trkpt lat="48.63285" lon="7.11746">
        <ele>388.9</ele>
        <time>2020-08-12T08:15:35Z</time>
      </trkpt>
      <trkpt lat="48.63279" lon="7.11746">
        <ele>388.7</ele>
        <time>2020-08-12T08:15:37Z</time>
      </trkpt>
      <trkpt lat="48.63272" lon="7.11745">
        <ele>387.7</ele>
        <time>2020-08-12T08:15:39Z</time>
      </trkpt>
      <trkpt lat="48.63266" lon="7.11745">
        <ele>387.4</ele>
        <time>2020-08-12T08:15:41Z</time>
      </trkpt>
      <trkpt lat="48.63258" lon="7.11742">
        <ele>391.3</ele>
        <time>2020-08-12T08:15:43Z</time>
      </trkpt>
      <trkpt lat="48.63249" lon="7.11738">
        <ele>390.7</ele>
        <time>2020-08-12T08:15:45Z</time>
      </trkpt>
      <trkpt lat="48.63238" lon="7.1173">
        <ele>389.9</ele>
        <time>2020-08-12T08:15:47Z</time>
      </trkpt>
      <trkpt lat="48.63226" lon="7.11722">
        <ele>388.1</ele>
        <time>2020-08-12T08:15:49Z</time>
      </trkpt>
      <trkpt lat="48.63217" lon="7.11714">
        <ele>385.9</ele>
        <time>2020-08-12T08:15:51Z</time>
      </trkpt>
      <trkpt lat="48.63211" lon="7.11704">
        <ele>383.4</ele>
        <time>2020-08-12T08:15:53Z</time>
      </trkpt>
      <trkpt lat="48.63206" lon="7.11698">
        <ele>381.5</ele>
        <time>2020-08-12T08:15:55Z</time>
      </trkpt>
      <trkpt lat="48.632" lon="7.11693">
        <ele>380</ele>
        <time>2020-08-12T08:15:57Z</time>
      </trkpt>
      <trkpt lat="48.63195" lon="7.11685">
        <ele>378.9</ele>
        <time>2020-08-12T08:15:59Z</time>
      </trkpt>
      <trkpt lat="48.63189" lon="7.11675">
        <ele>377.9</ele>
        <time>2020-08-12T08:16:01Z</time>
      </trkpt>
      <trkpt lat="48.63183" lon="7.11665">
        <ele>376.7</ele>
        <time>2020-08-12T08:16:03Z</time>
      </trkpt>
      <trkpt lat="48.63177" lon="7.11654">
        <ele>375.8</ele>
        <time>2020-08-12T08:16:05Z</time>
      </trkpt>
      <trkpt lat="48.63171" lon="7.11641">
        <ele>375</ele>
        <time>2020-08-12T08:16:07Z</time>
      </trkpt>
      <trkpt lat="48.63165" lon="7.11628">
        <ele>373.9</ele>
        <time>2020-08-12T08:16:09Z</time>
      </trkpt>
      <trkpt lat="48.63158" lon="7.11618">
        <ele>373.3</ele>
        <time>2020-08-12T08:16:11Z</time>
      </trkpt>
      <trkpt lat="48.63153" lon="7.1161">
        <ele>373</ele>
        <time>2020-08-12T08:16:13Z</time>
      </trkpt>
      <trkpt lat="48.63146" lon="7.11599">
        <ele>372.3</ele>
        <time>2020-08-12T08:16:15Z</time>
      </trkpt>
      <trkpt lat="48.63142" lon="7.11586">
        <ele>371.5</ele>
        <time>2020-08-12T08:16:17Z</time>
      </trkpt>
      <trkpt lat="48.63139" lon="7.11573">
        <ele>371</ele>
        <time>2020-08-12T08:16:19Z</time>
      </trkpt>
      <trkpt lat="48.63137" lon="7.11561">
        <ele>369.8</ele>
        <time>2020-08-12T08:16:21Z</time>
      </trkpt>
      <trkpt lat="48.63135" lon="7.1155">
        <ele>369.4</ele>
        <time>2020-08-12T08:16:23Z</time>
      </trkpt>
      <trkpt lat="48.63133" lon="7.11539">
        <ele>369.7</ele>
        <time>2020-08-12T08:16:25Z</time>
      </trkpt>
      <trkpt lat="48.63131" lon="7.11526">
        <ele>369.1</ele>
        <time>2020-08-12T08:16:27Z</time>
      </trkpt>
      <trkpt lat="48.63131" lon="7.1151">
        <ele>368.5</ele>
        <time>2020-08-12T08:16:29Z</time>
      </trkpt>
      <trkpt lat="48.6313" lon="7.11494">
        <ele>367.2</ele>
        <time>2020-08-12T08:16:31Z</time>
      </trkpt>
      <trkpt lat="48.63131" lon="7.11478">
        <ele>366.4</ele>
        <time>2020-08-12T08:16:33Z</time>
      </trkpt>
      <trkpt lat="48.63134" lon="7.11463">
        <ele>365.3</ele>
        <time>2020-08-12T08:16:35Z</time>
      </trkpt>
      <trkpt lat="48.63137" lon="7.11451">
        <ele>365.2</ele>
        <time>2020-08-12T08:16:37Z</time>
      </trkpt>
      <trkpt lat="48.6314" lon="7.11439">
        <ele>365</ele>
        <time>2020-08-12T08:16:39Z</time>
      </trkpt>
      <trkpt lat="48.63141" lon="7.11426">
        <ele>365.3</ele>
        <time>2020-08-12T08:16:41Z</time>
      </trkpt>
      <trkpt lat="48.63143" lon="7.11415">
        <ele>365.8</ele>
        <time>2020-08-12T08:16:43Z</time>
      </trkpt>
      <trkpt lat="48.63144" lon="7.11408">
        <ele>366.4</ele>
        <time>2020-08-12T08:16:46Z</time>
      </trkpt>
      <trkpt lat="48.63145" lon="7.11402">
        <ele>366.8</ele>
        <time>2020-08-12T08:16:55Z</time>
      </trkpt>
      <trkpt lat="48.63144" lon="7.11391">
        <ele>366</ele>
        <time>2020-08-12T08:16:59Z</time>
      </trkpt>
      <trkpt lat="48.63144" lon="7.11381">
        <ele>365.6</ele>
        <time>2020-08-12T08:17:01Z</time>
      </trkpt>
      <trkpt lat="48.63143" lon="7.11366">
        <ele>364.8</ele>
        <time>2020-08-12T08:17:03Z</time>
      </trkpt>
      <trkpt lat="48.63141" lon="7.11349">
        <ele>364.2</ele>
        <time>2020-08-12T08:17:05Z</time>
      </trkpt>
      <trkpt lat="48.6314" lon="7.11337">
        <ele>363.1</ele>
        <time>2020-08-12T08:17:07Z</time>
      </trkpt>
      <trkpt lat="48.6314" lon="7.11324">
        <ele>362.1</ele>
        <time>2020-08-12T08:17:09Z</time>
      </trkpt>
      <trkpt lat="48.63141" lon="7.11313">
        <ele>362</ele>
        <time>2020-08-12T08:17:11Z</time>
      </trkpt>
      <trkpt lat="48.6314" lon="7.11305">
        <ele>361.4</ele>
        <time>2020-08-12T08:17:13Z</time>
      </trkpt>
      <trkpt lat="48.63142" lon="7.11298">
        <ele>360.9</ele>
        <time>2020-08-12T08:17:16Z</time>
      </trkpt>
      <trkpt lat="48.63143" lon="7.11291">
        <ele>361</ele>
        <time>2020-08-12T08:17:18Z</time>
      </trkpt>
      <trkpt lat="48.63143" lon="7.11284">
        <ele>361</ele>
        <time>2020-08-12T08:17:21Z</time>
      </trkpt>
      <trkpt lat="48.63139" lon="7.11281">
        <ele>360.8</ele>
        <time>2020-08-12T08:17:29Z</time>
      </trkpt>
      <trkpt lat="48.63137" lon="7.11289">
        <ele>360.5</ele>
        <time>2020-08-12T08:17:32Z</time>
      </trkpt>
      <trkpt lat="48.63135" lon="7.11297">
        <ele>360.2</ele>
        <time>2020-08-12T08:17:34Z</time>
      </trkpt>
      <trkpt lat="48.63133" lon="7.11308">
        <ele>360.1</ele>
        <time>2020-08-12T08:17:36Z</time>
      </trkpt>
      <trkpt lat="48.6313" lon="7.11319">
        <ele>359.6</ele>
        <time>2020-08-12T08:17:38Z</time>
      </trkpt>
      <trkpt lat="48.63127" lon="7.11331">
        <ele>359.4</ele>
        <time>2020-08-12T08:17:40Z</time>
      </trkpt>
      <trkpt lat="48.63124" lon="7.11343">
        <ele>359</ele>
        <time>2020-08-12T08:17:42Z</time>
      </trkpt>
      <trkpt lat="48.63121" lon="7.11355">
        <ele>358.5</ele>
        <time>2020-08-12T08:17:44Z</time>
      </trkpt>
      <trkpt lat="48.63119" lon="7.11366">
        <ele>357.9</ele>
        <time>2020-08-12T08:17:46Z</time>
      </trkpt>
      <trkpt lat="48.63116" lon="7.11378">
        <ele>357.3</ele>
        <time>2020-08-12T08:17:48Z</time>
      </trkpt>
      <trkpt lat="48.63112" lon="7.11391">
        <ele>356.5</ele>
        <time>2020-08-12T08:17:50Z</time>
      </trkpt>
      <trkpt lat="48.63108" lon="7.11405">
        <ele>355.6</ele>
        <time>2020-08-12T08:17:52Z</time>
      </trkpt>
      <trkpt lat="48.63105" lon="7.11418">
        <ele>355.3</ele>
        <time>2020-08-12T08:17:54Z</time>
      </trkpt>
      <trkpt lat="48.63102" lon="7.1143">
        <ele>354.9</ele>
        <time>2020-08-12T08:17:56Z</time>
      </trkpt>
      <trkpt lat="48.63101" lon="7.11442">
        <ele>354.2</ele>
        <time>2020-08-12T08:17:58Z</time>
      </trkpt>
      <trkpt lat="48.63099" lon="7.11453">
        <ele>353.5</ele>
        <time>2020-08-12T08:18:00Z</time>
      </trkpt>
      <trkpt lat="48.63098" lon="7.11466">
        <ele>353.2</ele>
        <time>2020-08-12T08:18:02Z</time>
      </trkpt>
      <trkpt lat="48.63097" lon="7.11481">
        <ele>352.7</ele>
        <time>2020-08-12T08:18:04Z</time>
      </trkpt>
      <trkpt lat="48.63096" lon="7.11494">
        <ele>352.8</ele>
        <time>2020-08-12T08:18:06Z</time>
      </trkpt>
      <trkpt lat="48.63096" lon="7.11506">
        <ele>351.9</ele>
        <time>2020-08-12T08:18:08Z</time>
      </trkpt>
      <trkpt lat="48.63098" lon="7.11518">
        <ele>351.3</ele>
        <time>2020-08-12T08:18:10Z</time>
      </trkpt>
      <trkpt lat="48.63099" lon="7.11529">
        <ele>349.9</ele>
        <time>2020-08-12T08:18:12Z</time>
      </trkpt>
      <trkpt lat="48.63099" lon="7.11541">
        <ele>349.2</ele>
        <time>2020-08-12T08:18:14Z</time>
      </trkpt>
      <trkpt lat="48.631" lon="7.11551">
        <ele>347.8</ele>
        <time>2020-08-12T08:18:16Z</time>
      </trkpt>
      <trkpt lat="48.631" lon="7.1156">
        <ele>347.3</ele>
        <time>2020-08-12T08:18:18Z</time>
      </trkpt>
      <trkpt lat="48.631" lon="7.1157">
        <ele>346.4</ele>
        <time>2020-08-12T08:18:20Z</time>
      </trkpt>
      <trkpt lat="48.631" lon="7.1158">
        <ele>346.4</ele>
        <time>2020-08-12T08:18:22Z</time>
      </trkpt>
      <trkpt lat="48.631" lon="7.11591">
        <ele>347</ele>
        <time>2020-08-12T08:18:24Z</time>
      </trkpt>
      <trkpt lat="48.63099" lon="7.11602">
        <ele>348</ele>
        <time>2020-08-12T08:18:26Z</time>
      </trkpt>
      <trkpt lat="48.63098" lon="7.11611">
        <ele>348</ele>
        <time>2020-08-12T08:18:28Z</time>
      </trkpt>
      <trkpt lat="48.63099" lon="7.11619">
        <ele>348.1</ele>
        <time>2020-08-12T08:18:30Z</time>
      </trkpt>
      <trkpt lat="48.631" lon="7.11627">
        <ele>347.9</ele>
        <time>2020-08-12T08:18:32Z</time>
      </trkpt>
      <trkpt lat="48.63102" lon="7.11638">
        <ele>347.2</ele>
        <time>2020-08-12T08:18:34Z</time>
      </trkpt>
      <trkpt lat="48.63106" lon="7.11649">
        <ele>346.5</ele>
        <time>2020-08-12T08:18:36Z</time>
      </trkpt>
      <trkpt lat="48.63109" lon="7.11662">
        <ele>345.8</ele>
        <time>2020-08-12T08:18:38Z</time>
      </trkpt>
      <trkpt lat="48.63111" lon="7.11674">
        <ele>344.2</ele>
        <time>2020-08-12T08:18:40Z</time>
      </trkpt>
      <trkpt lat="48.63113" lon="7.11686">
        <ele>346.5</ele>
        <time>2020-08-12T08:18:42Z</time>
      </trkpt>
      <trkpt lat="48.63115" lon="7.11698">
        <ele>347.1</ele>
        <time>2020-08-12T08:18:44Z</time>
      </trkpt>
      <trkpt lat="48.63118" lon="7.11712">
        <ele>347.8</ele>
        <time>2020-08-12T08:18:46Z</time>
      </trkpt>
      <trkpt lat="48.6312" lon="7.11725">
        <ele>346.5</ele>
        <time>2020-08-12T08:18:48Z</time>
      </trkpt>
      <trkpt lat="48.63122" lon="7.11737">
        <ele>345.1</ele>
        <time>2020-08-12T08:18:50Z</time>
      </trkpt>
      <trkpt lat="48.63123" lon="7.11746">
        <ele>343.4</ele>
        <time>2020-08-12T08:18:52Z</time>
      </trkpt>
      <trkpt lat="48.63124" lon="7.11754">
        <ele>341.9</ele>
        <time>2020-08-12T08:18:54Z</time>
      </trkpt>
      <trkpt lat="48.63125" lon="7.11764">
        <ele>339.5</ele>
        <time>2020-08-12T08:18:57Z</time>
      </trkpt>
      <trkpt lat="48.63125" lon="7.11774">
        <ele>336.6</ele>
        <time>2020-08-12T08:19:00Z</time>
      </trkpt>
      <trkpt lat="48.63123" lon="7.11781">
        <ele>335</ele>
        <time>2020-08-12T08:19:02Z</time>
      </trkpt>
      <trkpt lat="48.6312" lon="7.11787">
        <ele>333.6</ele>
        <time>2020-08-12T08:19:04Z</time>
      </trkpt>
      <trkpt lat="48.63116" lon="7.11791">
        <ele>331.7</ele>
        <time>2020-08-12T08:19:06Z</time>
      </trkpt>
      <trkpt lat="48.6311" lon="7.11792">
        <ele>327.3</ele>
        <time>2020-08-12T08:19:11Z</time>
      </trkpt>
      <trkpt lat="48.63105" lon="7.11792">
        <ele>325.3</ele>
        <time>2020-08-12T08:19:13Z</time>
      </trkpt>
      <trkpt lat="48.63099" lon="7.1179">
        <ele>323.6</ele>
        <time>2020-08-12T08:19:15Z</time>
      </trkpt>
      <trkpt lat="48.63087" lon="7.11784">
        <ele>321.6</ele>
        <time>2020-08-12T08:19:17Z</time>
      </trkpt>
      <trkpt lat="48.63078" lon="7.1178">
        <ele>320.2</ele>
        <time>2020-08-12T08:19:19Z</time>
      </trkpt>
      <trkpt lat="48.63073" lon="7.11777">
        <ele>319</ele>
        <time>2020-08-12T08:19:22Z</time>
      </trkpt>
      <trkpt lat="48.63067" lon="7.11772">
        <ele>317.6</ele>
        <time>2020-08-12T08:19:25Z</time>
      </trkpt>
      <trkpt lat="48.63062" lon="7.11765">
        <ele>316.5</ele>
        <time>2020-08-12T08:19:27Z</time>
      </trkpt>
      <trkpt lat="48.63057" lon="7.11756">
        <ele>315.5</ele>
        <time>2020-08-12T08:19:29Z</time>
      </trkpt>
      <trkpt lat="48.63052" lon="7.11743">
        <ele>314.2</ele>
        <time>2020-08-12T08:19:31Z</time>
      </trkpt>
      <trkpt lat="48.63047" lon="7.11731">
        <ele>313.1</ele>
        <time>2020-08-12T08:19:33Z</time>
      </trkpt>
      <trkpt lat="48.63044" lon="7.11718">
        <ele>311.8</ele>
        <time>2020-08-12T08:19:35Z</time>
      </trkpt>
      <trkpt lat="48.63042" lon="7.11706">
        <ele>309.8</ele>
        <time>2020-08-12T08:19:37Z</time>
      </trkpt>
      <trkpt lat="48.6304" lon="7.11699">
        <ele>307.7</ele>
        <time>2020-08-12T08:19:39Z</time>
      </trkpt>
      <trkpt lat="48.63035" lon="7.11697">
        <ele>303.5</ele>
        <time>2020-08-12T08:19:49Z</time>
      </trkpt>
      <trkpt lat="48.63031" lon="7.11703">
        <ele>302.2</ele>
        <time>2020-08-12T08:19:52Z</time>
      </trkpt>
      <trkpt lat="48.63029" lon="7.1171">
        <ele>302</ele>
        <time>2020-08-12T08:19:54Z</time>
      </trkpt>
      <trkpt lat="48.63028" lon="7.11719">
        <ele>301.5</ele>
        <time>2020-08-12T08:19:56Z</time>
      </trkpt>
      <trkpt lat="48.63028" lon="7.11729">
        <ele>301.3</ele>
        <time>2020-08-12T08:19:58Z</time>
      </trkpt>
      <trkpt lat="48.63028" lon="7.1174">
        <ele>301.1</ele>
        <time>2020-08-12T08:20:00Z</time>
      </trkpt>
      <trkpt lat="48.63027" lon="7.1175">
        <ele>300.3</ele>
        <time>2020-08-12T08:20:02Z</time>
      </trkpt>
      <trkpt lat="48.63026" lon="7.11761">
        <ele>300.2</ele>
        <time>2020-08-12T08:20:04Z</time>
      </trkpt>
      <trkpt lat="48.63024" lon="7.11773">
        <ele>300.2</ele>
        <time>2020-08-12T08:20:06Z</time>
      </trkpt>
      <trkpt lat="48.63021" lon="7.11785">
        <ele>300.1</ele>
        <time>2020-08-12T08:20:08Z</time>
      </trkpt>
      <trkpt lat="48.63017" lon="7.11796">
        <ele>300.5</ele>
        <time>2020-08-12T08:20:10Z</time>
      </trkpt>
      <trkpt lat="48.63012" lon="7.11808">
        <ele>300.8</ele>
        <time>2020-08-12T08:20:12Z</time>
      </trkpt>
      <trkpt lat="48.63007" lon="7.11819">
        <ele>300.7</ele>
        <time>2020-08-12T08:20:14Z</time>
      </trkpt>
      <trkpt lat="48.63003" lon="7.11831">
        <ele>300.8</ele>
        <time>2020-08-12T08:20:16Z</time>
      </trkpt>
      <trkpt lat="48.62999" lon="7.11841">
        <ele>300.9</ele>
        <time>2020-08-12T08:20:18Z</time>
      </trkpt>
      <trkpt lat="48.62998" lon="7.11851">
        <ele>301.1</ele>
        <time>2020-08-12T08:20:20Z</time>
      </trkpt>
      <trkpt lat="48.62999" lon="7.11858">
        <ele>301.4</ele>
        <time>2020-08-12T08:20:22Z</time>
      </trkpt>
      <trkpt lat="48.63004" lon="7.11861">
        <ele>301.1</ele>
        <time>2020-08-12T08:20:34Z</time>
      </trkpt>
      <trkpt lat="48.63006" lon="7.11855">
        <ele>300.7</ele>
        <time>2020-08-12T08:20:51Z</time>
      </trkpt>
      <trkpt lat="48.63002" lon="7.11848">
        <ele>298.5</ele>
        <time>2020-08-12T08:21:24Z</time>
      </trkpt>
      <trkpt lat="48.62997" lon="7.11848">
        <ele>298.6</ele>
        <time>2020-08-12T08:21:27Z</time>
      </trkpt>
      <trkpt lat="48.62993" lon="7.11855">
        <ele>298.9</ele>
        <time>2020-08-12T08:21:30Z</time>
      </trkpt>
      <trkpt lat="48.6299" lon="7.11861">
        <ele>299.2</ele>
        <time>2020-08-12T08:21:32Z</time>
      </trkpt>
      <trkpt lat="48.62987" lon="7.11867">
        <ele>299.1</ele>
        <time>2020-08-12T08:21:34Z</time>
      </trkpt>
      <trkpt lat="48.62984" lon="7.11873">
        <ele>299.5</ele>
        <time>2020-08-12T08:21:36Z</time>
      </trkpt>
      <trkpt lat="48.62981" lon="7.11879">
        <ele>299.2</ele>
        <time>2020-08-12T08:21:38Z</time>
      </trkpt>
      <trkpt lat="48.62977" lon="7.11884">
        <ele>299.5</ele>
        <time>2020-08-12T08:21:40Z</time>
      </trkpt>
      <trkpt lat="48.62972" lon="7.11889">
        <ele>299.7</ele>
        <time>2020-08-12T08:21:42Z</time>
      </trkpt>
      <trkpt lat="48.62968" lon="7.11894">
        <ele>300.2</ele>
        <time>2020-08-12T08:21:44Z</time>
      </trkpt>
      <trkpt lat="48.62964" lon="7.11899">
        <ele>300.7</ele>
        <time>2020-08-12T08:21:46Z</time>
      </trkpt>
      <trkpt lat="48.62962" lon="7.11906">
        <ele>301.2</ele>
        <time>2020-08-12T08:21:48Z</time>
      </trkpt>
      <trkpt lat="48.62962" lon="7.11916">
        <ele>301.8</ele>
        <time>2020-08-12T08:21:50Z</time>
      </trkpt>
      <trkpt lat="48.6296" lon="7.11924">
        <ele>302.6</ele>
        <time>2020-08-12T08:21:52Z</time>
      </trkpt>
      <trkpt lat="48.62956" lon="7.11931">
        <ele>303.2</ele>
        <time>2020-08-12T08:21:54Z</time>
      </trkpt>
      <trkpt lat="48.62951" lon="7.11936">
        <ele>304.2</ele>
        <time>2020-08-12T08:21:56Z</time>
      </trkpt>
      <trkpt lat="48.62945" lon="7.11941">
        <ele>305.3</ele>
        <time>2020-08-12T08:21:58Z</time>
      </trkpt>
      <trkpt lat="48.62939" lon="7.11945">
        <ele>306.3</ele>
        <time>2020-08-12T08:22:00Z</time>
      </trkpt>
      <trkpt lat="48.62933" lon="7.11951">
        <ele>307.5</ele>
        <time>2020-08-12T08:22:02Z</time>
      </trkpt>
      <trkpt lat="48.62927" lon="7.11958">
        <ele>308.8</ele>
        <time>2020-08-12T08:22:04Z</time>
      </trkpt>
      <trkpt lat="48.62922" lon="7.11965">
        <ele>309.9</ele>
        <time>2020-08-12T08:22:06Z</time>
      </trkpt>
      <trkpt lat="48.62917" lon="7.11973">
        <ele>311.1</ele>
        <time>2020-08-12T08:22:08Z</time>
      </trkpt>
      <trkpt lat="48.62913" lon="7.11982">
        <ele>312.5</ele>
        <time>2020-08-12T08:22:10Z</time>
      </trkpt>
      <trkpt lat="48.62909" lon="7.1199">
        <ele>314.2</ele>
        <time>2020-08-12T08:22:12Z</time>
      </trkpt>
      <trkpt lat="48.62906" lon="7.11999">
        <ele>315.1</ele>
        <time>2020-08-12T08:22:14Z</time>
      </trkpt>
      <trkpt lat="48.62903" lon="7.12007">
        <ele>316.5</ele>
        <time>2020-08-12T08:22:16Z</time>
      </trkpt>
      <trkpt lat="48.629" lon="7.12015">
        <ele>317.6</ele>
        <time>2020-08-12T08:22:18Z</time>
      </trkpt>
      <trkpt lat="48.62897" lon="7.12024">
        <ele>318.4</ele>
        <time>2020-08-12T08:22:20Z</time>
      </trkpt>
      <trkpt lat="48.62896" lon="7.12034">
        <ele>319</ele>
        <time>2020-08-12T08:22:22Z</time>
      </trkpt>
      <trkpt lat="48.62895" lon="7.12044">
        <ele>319.8</ele>
        <time>2020-08-12T08:22:24Z</time>
      </trkpt>
      <trkpt lat="48.62893" lon="7.12054">
        <ele>320.7</ele>
        <time>2020-08-12T08:22:26Z</time>
      </trkpt>
      <trkpt lat="48.62892" lon="7.12062">
        <ele>321.5</ele>
        <time>2020-08-12T08:22:28Z</time>
      </trkpt>
      <trkpt lat="48.62891" lon="7.1207">
        <ele>322.9</ele>
        <time>2020-08-12T08:22:30Z</time>
      </trkpt>
      <trkpt lat="48.6289" lon="7.12078">
        <ele>323.8</ele>
        <time>2020-08-12T08:22:32Z</time>
      </trkpt>
      <trkpt lat="48.62891" lon="7.12085">
        <ele>324.7</ele>
        <time>2020-08-12T08:22:36Z</time>
      </trkpt>
      <trkpt lat="48.62891" lon="7.12093">
        <ele>325.7</ele>
        <time>2020-08-12T08:22:44Z</time>
      </trkpt>
      <trkpt lat="48.62889" lon="7.121">
        <ele>326.5</ele>
        <time>2020-08-12T08:22:49Z</time>
      </trkpt>
      <trkpt lat="48.62889" lon="7.12108">
        <ele>327.4</ele>
        <time>2020-08-12T08:22:54Z</time>
      </trkpt>
      <trkpt lat="48.6289" lon="7.12116">
        <ele>328.1</ele>
        <time>2020-08-12T08:22:58Z</time>
      </trkpt>
      <trkpt lat="48.62891" lon="7.12123">
        <ele>328.5</ele>
        <time>2020-08-12T08:23:03Z</time>
      </trkpt>
      <trkpt lat="48.62892" lon="7.1213">
        <ele>328.4</ele>
        <time>2020-08-12T08:23:06Z</time>
      </trkpt>
      <trkpt lat="48.62893" lon="7.12138">
        <ele>328.7</ele>
        <time>2020-08-12T08:23:10Z</time>
      </trkpt>
      <trkpt lat="48.62895" lon="7.12144">
        <ele>330.3</ele>
        <time>2020-08-12T08:23:15Z</time>
      </trkpt>
      <trkpt lat="48.62899" lon="7.12148">
        <ele>331.8</ele>
        <time>2020-08-12T08:23:21Z</time>
      </trkpt>
      <trkpt lat="48.62904" lon="7.1215">
        <ele>333.7</ele>
        <time>2020-08-12T08:23:30Z</time>
      </trkpt>
      <trkpt lat="48.62909" lon="7.12148">
        <ele>336.4</ele>
        <time>2020-08-12T08:23:36Z</time>
      </trkpt>
      <trkpt lat="48.62913" lon="7.12146">
        <ele>337</ele>
        <time>2020-08-12T08:23:42Z</time>
      </trkpt>
      <trkpt lat="48.62918" lon="7.12142">
        <ele>337.7</ele>
        <time>2020-08-12T08:23:50Z</time>
      </trkpt>
      <trkpt lat="48.62922" lon="7.12138">
        <ele>338.2</ele>
        <time>2020-08-12T08:23:54Z</time>
      </trkpt>
      <trkpt lat="48.62927" lon="7.12135">
        <ele>337.8</ele>
        <time>2020-08-12T08:23:58Z</time>
      </trkpt>
      <trkpt lat="48.62932" lon="7.12133">
        <ele>338.7</ele>
        <time>2020-08-12T08:24:02Z</time>
      </trkpt>
      <trkpt lat="48.62936" lon="7.1213">
        <ele>339.2</ele>
        <time>2020-08-12T08:24:06Z</time>
      </trkpt>
      <trkpt lat="48.6294" lon="7.12127">
        <ele>339.7</ele>
        <time>2020-08-12T08:24:10Z</time>
      </trkpt>
      <trkpt lat="48.62945" lon="7.12125">
        <ele>340.6</ele>
        <time>2020-08-12T08:24:15Z</time>
      </trkpt>
      <trkpt lat="48.6295" lon="7.12124">
        <ele>341.3</ele>
        <time>2020-08-12T08:24:21Z</time>
      </trkpt>
      <trkpt lat="48.62955" lon="7.12124">
        <ele>341.5</ele>
        <time>2020-08-12T08:24:23Z</time>
      </trkpt>
      <trkpt lat="48.6296" lon="7.12125">
        <ele>341.7</ele>
        <time>2020-08-12T08:24:25Z</time>
      </trkpt>
      <trkpt lat="48.62966" lon="7.12126">
        <ele>342.7</ele>
        <time>2020-08-12T08:24:28Z</time>
      </trkpt>
      <trkpt lat="48.62971" lon="7.12127">
        <ele>344</ele>
        <time>2020-08-12T08:24:30Z</time>
      </trkpt>
      <trkpt lat="48.62977" lon="7.12129">
        <ele>345</ele>
        <time>2020-08-12T08:24:32Z</time>
      </trkpt>
      <trkpt lat="48.62983" lon="7.12132">
        <ele>346</ele>
        <time>2020-08-12T08:24:34Z</time>
      </trkpt>
      <trkpt lat="48.62988" lon="7.12135">
        <ele>347.1</ele>
        <time>2020-08-12T08:24:36Z</time>
      </trkpt>
      <trkpt lat="48.62992" lon="7.12137">
        <ele>348.1</ele>
        <time>2020-08-12T08:24:38Z</time>
      </trkpt>
      <trkpt lat="48.62997" lon="7.1214">
        <ele>348.7</ele>
        <time>2020-08-12T08:24:40Z</time>
      </trkpt>
      <trkpt lat="48.63002" lon="7.12144">
        <ele>349.2</ele>
        <time>2020-08-12T08:24:42Z</time>
      </trkpt>
      <trkpt lat="48.63008" lon="7.1215">
        <ele>350.3</ele>
        <time>2020-08-12T08:24:44Z</time>
      </trkpt>
      <trkpt lat="48.63013" lon="7.12154">
        <ele>351.7</ele>
        <time>2020-08-12T08:24:46Z</time>
      </trkpt>
      <trkpt lat="48.63017" lon="7.12158">
        <ele>352.7</ele>
        <time>2020-08-12T08:24:48Z</time>
      </trkpt>
      <trkpt lat="48.63023" lon="7.12162">
        <ele>354.2</ele>
        <time>2020-08-12T08:24:50Z</time>
      </trkpt>
      <trkpt lat="48.63028" lon="7.12166">
        <ele>355.3</ele>
        <time>2020-08-12T08:24:52Z</time>
      </trkpt>
      <trkpt lat="48.63033" lon="7.12171">
        <ele>357</ele>
        <time>2020-08-12T08:24:54Z</time>
      </trkpt>
      <trkpt lat="48.63038" lon="7.12176">
        <ele>358.4</ele>
        <time>2020-08-12T08:24:56Z</time>
      </trkpt>
      <trkpt lat="48.63043" lon="7.12182">
        <ele>359.1</ele>
        <time>2020-08-12T08:24:58Z</time>
      </trkpt>
      <trkpt lat="48.63047" lon="7.1219">
        <ele>360.1</ele>
        <time>2020-08-12T08:25:00Z</time>
      </trkpt>
      <trkpt lat="48.6305" lon="7.12196">
        <ele>360.6</ele>
        <time>2020-08-12T08:25:02Z</time>
      </trkpt>
      <trkpt lat="48.63053" lon="7.12202">
        <ele>361</ele>
        <time>2020-08-12T08:25:05Z</time>
      </trkpt>
      <trkpt lat="48.63056" lon="7.12207">
        <ele>362.3</ele>
        <time>2020-08-12T08:25:11Z</time>
      </trkpt>
      <trkpt lat="48.6306" lon="7.12211">
        <ele>363.7</ele>
        <time>2020-08-12T08:25:16Z</time>
      </trkpt>
      <trkpt lat="48.63064" lon="7.12214">
        <ele>366.3</ele>
        <time>2020-08-12T08:25:35Z</time>
      </trkpt>
    </trkseg>
  </trk>
</gpx>